UAL49C KLAX-PHNL
Flight info
| Callsign | UAL49C |
|---|---|
| Flight time | 5h 30m |
| Altitude | 36000 |
| Route | SUMMR2 DINTY DUETS R576 DUSAC/N0485F380 R576 DENNS MAGGI3 |
| Aircraft | B789/H-SDE1E2E3FGHIJ2J3J4J5M1RWXY/LB1D1 |
Departure
| Time | 2026-05-05 13:20 |
|---|---|
| Airport | Los Angeles International Airport (KLAX) |
Arrival
| Time | 2026-05-05 18:50 |
|---|---|
| Airport | Daniel K. Inouye International Airport (PHNL) |
| Time | Latitude | Longitude | Altitude | Speed | Heading |
|---|---|---|---|---|---|
| 2026-05-05 13:09 | 33.94021 | -118.41070 | 98 ft | 0 kts | 83° |
| 2026-05-05 13:11 | 33.94019 | -118.41093 | 97 ft | 4 kts | 83° |
| 2026-05-05 13:11 | 33.94016 | -118.41125 | 96 ft | 4 kts | 83° |
| 2026-05-05 13:11 | 33.94013 | -118.41151 | 96 ft | 4 kts | 89° |
| 2026-05-05 13:11 | 33.94019 | -118.41178 | 96 ft | 4 kts | 142° |
| 2026-05-05 13:12 | 33.94040 | -118.41187 | 101 ft | 4 kts | 173° |
| 2026-05-05 13:12 | 33.94063 | -118.41190 | 97 ft | 0 kts | 173° |
| 2026-05-05 13:14 | 33.94062 | -118.41190 | 97 ft | 1 kts | 173° |
| 2026-05-05 13:14 | 33.94051 | -118.41188 | 97 ft | 2 kts | 173° |
| 2026-05-05 13:14 | 33.94029 | -118.41185 | 98 ft | 4 kts | 173° |
| 2026-05-05 13:14 | 33.93997 | -118.41181 | 97 ft | 5 kts | 173° |
| 2026-05-05 13:15 | 33.93951 | -118.41174 | 99 ft | 8 kts | 173° |
| 2026-05-05 13:15 | 33.93892 | -118.41164 | 100 ft | 9 kts | 167° |
| 2026-05-05 13:15 | 33.93853 | -118.41115 | 100 ft | 8 kts | 104° |
| 2026-05-05 13:15 | 33.93856 | -118.41044 | 100 ft | 9 kts | 83° |
| 2026-05-05 13:16 | 33.93864 | -118.40958 | 101 ft | 11 kts | 83° |
| 2026-05-05 13:16 | 33.93874 | -118.40854 | 98 ft | 14 kts | 83° |
| 2026-05-05 13:16 | 33.93886 | -118.40733 | 99 ft | 15 kts | 83° |
| 2026-05-05 13:16 | 33.93901 | -118.40599 | 101 ft | 17 kts | 83° |
| 2026-05-05 13:17 | 33.93916 | -118.40453 | 100 ft | 18 kts | 83° |
| 2026-05-05 13:17 | 33.93933 | -118.40295 | 99 ft | 20 kts | 83° |
| 2026-05-05 13:17 | 33.93951 | -118.40122 | 100 ft | 22 kts | 83° |
| 2026-05-05 13:17 | 33.93971 | -118.39908 | 99 ft | 29 kts | 83° |
| 2026-05-05 13:18 | 33.93996 | -118.39648 | 99 ft | 35 kts | 83° |
| 2026-05-05 13:18 | 33.94026 | -118.39338 | 100 ft | 40 kts | 83° |
| 2026-05-05 13:18 | 33.94058 | -118.38985 | 98 ft | 45 kts | 86° |
| 2026-05-05 13:18 | 33.94094 | -118.38596 | 99 ft | 49 kts | 83° |
| 2026-05-05 13:19 | 33.94061 | -118.38308 | 103 ft | 20 kts | 164° |
| 2026-05-05 13:19 | 33.93953 | -118.38370 | 104 ft | 18 kts | 250° |
| 2026-05-05 13:19 | 33.93926 | -118.38563 | 106 ft | 42 kts | 264° |
| 2026-05-05 13:19 | 33.93858 | -118.39231 | 100 ft | 117 kts | 264° |
| 2026-05-05 13:20 | 33.93732 | -118.40461 | 103 ft | 177 kts | 263° |
| 2026-05-05 13:20 | 33.93552 | -118.42034 | 688 ft | 178 kts | 257° |
| 2026-05-05 13:20 | 33.93380 | -118.43412 | 1644 ft | 172 kts | 264° |
| 2026-05-05 13:20 | 33.93263 | -118.44954 | 1838 ft | 200 kts | 265° |
| 2026-05-05 13:21 | 33.93104 | -118.46730 | 2105 ft | 225 kts | 264° |
| 2026-05-05 13:21 | 33.92945 | -118.48667 | 2619 ft | 235 kts | 265° |
| 2026-05-05 13:21 | 33.92787 | -118.50624 | 3358 ft | 236 kts | 265° |
| 2026-05-05 13:21 | 33.92624 | -118.52600 | 4038 ft | 239 kts | 265° |
| 2026-05-05 13:22 | 33.92454 | -118.54662 | 4422 ft | 259 kts | 265° |
| 2026-05-05 13:22 | 33.92275 | -118.56821 | 5307 ft | 259 kts | 265° |
| 2026-05-05 13:22 | 33.92095 | -118.58992 | 6100 ft | 263 kts | 265° |
| 2026-05-05 13:22 | 33.91974 | -118.60449 | 6614 ft | 265 kts | 265° |
| 2026-05-05 13:23 | 33.91772 | -118.63392 | 7608 ft | 268 kts | 272° |
| 2026-05-05 13:23 | 33.91815 | -118.65644 | 8335 ft | 271 kts | 269° |
| 2026-05-05 13:23 | 33.91767 | -118.67915 | 9147 ft | 271 kts | 269° |
| 2026-05-05 13:23 | 33.91745 | -118.69455 | 9671 ft | 273 kts | 270° |
| 2026-05-05 13:24 | 33.91739 | -118.71733 | 10240 ft | 282 kts | 270° |
| 2026-05-05 13:24 | 33.91739 | -118.74213 | 10281 ft | 310 kts | 270° |
| 2026-05-05 13:24 | 33.91729 | -118.76917 | 10329 ft | 335 kts | 270° |
| 2026-05-05 13:24 | 33.91712 | -118.79757 | 10915 ft | 339 kts | 270° |
| 2026-05-05 13:25 | 33.91698 | -118.82613 | 11567 ft | 343 kts | 270° |
| 2026-05-05 13:25 | 33.91819 | -118.85496 | 12143 ft | 347 kts | 273° |
| 2026-05-05 13:25 | 33.91882 | -118.88412 | 12784 ft | 350 kts | 271° |
| 2026-05-05 13:25 | 33.91920 | -118.91351 | 13415 ft | 353 kts | 271° |
| 2026-05-05 13:26 | 33.92010 | -118.94322 | 14015 ft | 357 kts | 272° |
| 2026-05-05 13:26 | 33.92118 | -118.97324 | 14566 ft | 360 kts | 272° |
| 2026-05-05 13:26 | 33.92262 | -119.00342 | 15083 ft | 363 kts | 279° |
| 2026-05-05 13:26 | 33.93071 | -119.03221 | 15592 ft | 366 kts | 297° |
| 2026-05-05 13:27 | 33.94385 | -119.05861 | 16070 ft | 370 kts | 301° |
| 2026-05-05 13:27 | 33.95756 | -119.08493 | 16622 ft | 372 kts | 302° |
| 2026-05-05 13:27 | 33.97143 | -119.11138 | 17126 ft | 375 kts | 301° |
| 2026-05-05 13:27 | 33.98523 | -119.13818 | 17628 ft | 378 kts | 301° |
| 2026-05-05 13:28 | 33.99906 | -119.16521 | 18114 ft | 380 kts | 301° |
| 2026-05-05 13:28 | 34.01558 | -119.19015 | 18527 ft | 384 kts | 317° |
| 2026-05-05 13:28 | 34.03681 | -119.20993 | 18882 ft | 388 kts | 323° |
| 2026-05-05 13:28 | 34.05892 | -119.22874 | 19299 ft | 390 kts | 324° |
| 2026-05-05 13:29 | 34.08133 | -119.24745 | 19703 ft | 393 kts | 324° |
| 2026-05-05 13:29 | 34.10357 | -119.26656 | 20181 ft | 392 kts | 323° |
| 2026-05-05 13:29 | 34.12578 | -119.28594 | 20564 ft | 395 kts | 323° |
| 2026-05-05 13:29 | 34.14818 | -119.30528 | 20955 ft | 397 kts | 323° |
| 2026-05-05 13:30 | 34.17081 | -119.32465 | 21299 ft | 399 kts | 324° |
| 2026-05-05 13:30 | 34.19345 | -119.34412 | 21703 ft | 400 kts | 323° |
| 2026-05-05 13:30 | 34.21621 | -119.36380 | 22001 ft | 404 kts | 324° |
| 2026-05-05 13:30 | 34.23915 | -119.38365 | 22292 ft | 407 kts | 324° |
| 2026-05-05 13:31 | 34.26227 | -119.40359 | 22644 ft | 409 kts | 324° |
| 2026-05-05 13:31 | 34.28551 | -119.42366 | 22965 ft | 411 kts | 324° |
| 2026-05-05 13:31 | 34.30850 | -119.44356 | 23280 ft | 413 kts | 324° |
| 2026-05-05 13:31 | 34.33222 | -119.46411 | 23590 ft | 415 kts | 324° |
| 2026-05-05 13:32 | 34.35546 | -119.48424 | 23846 ft | 417 kts | 323° |
| 2026-05-05 13:32 | 34.37708 | -119.50748 | 24077 ft | 417 kts | 310° |
| 2026-05-05 13:32 | 34.39327 | -119.53660 | 24327 ft | 419 kts | 296° |
| 2026-05-05 13:32 | 34.40314 | -119.56972 | 24581 ft | 420 kts | 282° |
| 2026-05-05 13:33 | 34.40590 | -119.60497 | 24809 ft | 423 kts | 268° |
| 2026-05-05 13:33 | 34.40381 | -119.64060 | 24924 ft | 427 kts | 266° |
| 2026-05-05 13:33 | 34.40125 | -119.67640 | 25191 ft | 427 kts | 265° |
| 2026-05-05 13:33 | 34.39856 | -119.71235 | 25395 ft | 430 kts | 266° |
| 2026-05-05 13:34 | 34.39603 | -119.74849 | 25610 ft | 432 kts | 266° |
| 2026-05-05 13:34 | 34.39355 | -119.78481 | 25821 ft | 434 kts | 266° |
| 2026-05-05 13:34 | 34.39098 | -119.82126 | 26039 ft | 436 kts | 266° |
| 2026-05-05 13:34 | 34.38831 | -119.85794 | 26236 ft | 438 kts | 267° |
| 2026-05-05 13:35 | 34.38568 | -119.89479 | 26446 ft | 440 kts | 267° |
| 2026-05-05 13:35 | 34.38305 | -119.93178 | 26648 ft | 442 kts | 267° |
| 2026-05-05 13:35 | 34.38037 | -119.96899 | 26862 ft | 445 kts | 266° |
| 2026-05-05 13:35 | 34.37766 | -120.00633 | 27075 ft | 447 kts | 266° |
| 2026-05-05 13:36 | 34.37492 | -120.04388 | 27308 ft | 449 kts | 267° |
| 2026-05-05 13:36 | 34.37218 | -120.08154 | 27511 ft | 451 kts | 267° |
| 2026-05-05 13:36 | 34.36940 | -120.11945 | 27731 ft | 453 kts | 267° |
| 2026-05-05 13:36 | 34.36659 | -120.15757 | 27863 ft | 457 kts | 267° |
| 2026-05-05 13:37 | 34.36376 | -120.19592 | 28117 ft | 458 kts | 268° |
| 2026-05-05 13:37 | 34.36090 | -120.23439 | 28317 ft | 460 kts | 268° |
| 2026-05-05 13:37 | 34.35805 | -120.27257 | 28533 ft | 462 kts | 268° |
| 2026-05-05 13:37 | 34.35514 | -120.31143 | 28757 ft | 465 kts | 268° |
| 2026-05-05 13:38 | 34.35220 | -120.35047 | 28963 ft | 467 kts | 268° |
| 2026-05-05 13:38 | 34.34924 | -120.38970 | 29188 ft | 469 kts | 268° |
| 2026-05-05 13:38 | 34.34625 | -120.42905 | 29357 ft | 472 kts | 268° |
| 2026-05-05 13:38 | 34.34016 | -120.46832 | 29572 ft | 478 kts | 256° |
| 2026-05-05 13:39 | 34.32779 | -120.50590 | 29762 ft | 484 kts | 247° |
| 2026-05-05 13:39 | 34.31328 | -120.54280 | 29941 ft | 487 kts | 247° |
| 2026-05-05 13:39 | 34.29860 | -120.57981 | 30155 ft | 489 kts | 247° |
| 2026-05-05 13:39 | 34.28384 | -120.61701 | 30374 ft | 490 kts | 247° |
| 2026-05-05 13:40 | 34.26914 | -120.65423 | 30613 ft | 491 kts | 247° |
| 2026-05-05 13:40 | 34.25442 | -120.69149 | 30841 ft | 492 kts | 247° |
| 2026-05-05 13:40 | 34.23962 | -120.72878 | 31078 ft | 493 kts | 247° |
| 2026-05-05 13:40 | 34.22477 | -120.76612 | 31315 ft | 493 kts | 247° |
| 2026-05-05 13:41 | 34.20990 | -120.80354 | 31537 ft | 495 kts | 247° |
| 2026-05-05 13:41 | 34.19498 | -120.84107 | 31774 ft | 496 kts | 247° |
| 2026-05-05 13:41 | 34.18004 | -120.87858 | 32011 ft | 496 kts | 247° |
| 2026-05-05 13:41 | 34.16504 | -120.91617 | 32235 ft | 497 kts | 246° |
| 2026-05-05 13:42 | 34.15001 | -120.95382 | 32481 ft | 498 kts | 246° |
| 2026-05-05 13:42 | 34.13490 | -120.99160 | 32619 ft | 501 kts | 247° |
| 2026-05-05 13:42 | 34.11972 | -121.02958 | 32849 ft | 502 kts | 247° |
| 2026-05-05 13:42 | 34.10451 | -121.06754 | 33077 ft | 503 kts | 247° |
| 2026-05-05 13:43 | 34.08925 | -121.10557 | 33298 ft | 504 kts | 247° |
| 2026-05-05 13:43 | 34.07395 | -121.14367 | 33583 ft | 503 kts | 247° |
| 2026-05-05 13:43 | 34.05872 | -121.18155 | 33927 ft | 501 kts | 246° |
| 2026-05-05 13:43 | 34.04371 | -121.21885 | 34231 ft | 500 kts | 246° |
| 2026-05-05 13:44 | 34.02855 | -121.25647 | 34469 ft | 499 kts | 247° |
| 2026-05-05 13:44 | 34.01341 | -121.29403 | 34711 ft | 498 kts | 247° |
| 2026-05-05 13:44 | 33.99827 | -121.33154 | 34959 ft | 497 kts | 246° |
| 2026-05-05 13:44 | 33.98315 | -121.36895 | 35208 ft | 496 kts | 246° |
| 2026-05-05 13:45 | 33.96806 | -121.40622 | 35454 ft | 495 kts | 246° |
| 2026-05-05 13:45 | 33.95298 | -121.44345 | 35696 ft | 494 kts | 246° |
| 2026-05-05 13:45 | 33.93793 | -121.48056 | 35935 ft | 493 kts | 246° |
| 2026-05-05 13:45 | 33.92285 | -121.51773 | 36045 ft | 495 kts | 246° |
| 2026-05-05 13:46 | 33.89250 | -121.59233 | 36039 ft | 495 kts | 246° |
| 2026-05-05 13:46 | 33.86227 | -121.66653 | 36041 ft | 492 kts | 246° |
| 2026-05-05 13:47 | 33.83209 | -121.74041 | 36042 ft | 491 kts | 246° |
| 2026-05-05 13:47 | 33.80195 | -121.81405 | 36043 ft | 490 kts | 247° |
| 2026-05-05 13:48 | 33.77180 | -121.88758 | 36051 ft | 491 kts | 246° |
| 2026-05-05 13:48 | 33.74150 | -121.96127 | 36054 ft | 492 kts | 246° |
| 2026-05-05 13:49 | 33.71129 | -122.03461 | 36058 ft | 494 kts | 246° |
| 2026-05-05 13:49 | 33.68082 | -122.10841 | 36054 ft | 493 kts | 247° |
| 2026-05-05 13:50 | 33.65041 | -122.18190 | 36050 ft | 488 kts | 247° |
| 2026-05-05 13:50 | 33.62028 | -122.25458 | 36051 ft | 486 kts | 247° |
| 2026-05-05 13:51 | 33.59003 | -122.32740 | 36052 ft | 488 kts | 246° |
| 2026-05-05 13:51 | 33.55966 | -122.40032 | 36059 ft | 489 kts | 247° |
| 2026-05-05 13:52 | 33.52922 | -122.47332 | 36069 ft | 489 kts | 247° |
| 2026-05-05 13:52 | 33.49876 | -122.54612 | 36068 ft | 488 kts | 247° |
| 2026-05-05 13:53 | 33.47524 | -122.62135 | 36062 ft | 480 kts | 259° |
| 2026-05-05 13:53 | 33.45924 | -122.69922 | 36071 ft | 481 kts | 260° |
| 2026-05-05 13:54 | 33.44320 | -122.77704 | 36066 ft | 482 kts | 259° |
| 2026-05-05 13:54 | 33.42706 | -122.85493 | 36074 ft | 482 kts | 259° |
| 2026-05-05 13:55 | 33.41089 | -122.93284 | 36056 ft | 483 kts | 260° |
| 2026-05-05 13:55 | 33.39463 | -123.01091 | 36063 ft | 484 kts | 260° |
| 2026-05-05 13:56 | 33.37832 | -123.08886 | 36068 ft | 483 kts | 260° |
| 2026-05-05 13:56 | 33.36200 | -123.16666 | 36041 ft | 482 kts | 260° |
| 2026-05-05 13:57 | 33.34561 | -123.24458 | 36065 ft | 487 kts | 260° |
| 2026-05-05 13:57 | 33.32907 | -123.32282 | 36071 ft | 488 kts | 260° |
| 2026-05-05 13:58 | 33.31245 | -123.40127 | 36067 ft | 486 kts | 260° |
| 2026-05-05 13:58 | 33.29583 | -123.47945 | 36064 ft | 485 kts | 260° |
| 2026-05-05 13:59 | 33.27078 | -123.59679 | 36064 ft | 487 kts | 260° |
| 2026-05-05 14:00 | 33.24835 | -123.70134 | 36062 ft | 488 kts | 259° |
| 2026-05-05 14:00 | 33.22864 | -123.79282 | 36067 ft | 485 kts | 259° |
| 2026-05-05 14:01 | 33.21188 | -123.87038 | 36064 ft | 485 kts | 259° |
| 2026-05-05 14:01 | 33.19483 | -123.94899 | 36065 ft | 486 kts | 259° |
| 2026-05-05 14:02 | 33.17798 | -124.02644 | 36074 ft | 484 kts | 259° |
| 2026-05-05 14:02 | 33.16101 | -124.10419 | 36071 ft | 484 kts | 259° |
| 2026-05-05 14:03 | 33.14400 | -124.18187 | 36078 ft | 484 kts | 259° |
| 2026-05-05 14:03 | 33.12695 | -124.25948 | 36072 ft | 481 kts | 259° |
| 2026-05-05 14:04 | 33.10994 | -124.33663 | 36068 ft | 481 kts | 259° |
| 2026-05-05 14:04 | 33.09288 | -124.41380 | 36069 ft | 482 kts | 258° |
| 2026-05-05 14:05 | 33.07574 | -124.49112 | 36066 ft | 482 kts | 258° |
| 2026-05-05 14:05 | 33.05864 | -124.56786 | 36076 ft | 478 kts | 258° |
| 2026-05-05 14:06 | 33.04152 | -124.64437 | 36070 ft | 478 kts | 258° |
| 2026-05-05 14:06 | 33.02434 | -124.72092 | 36072 ft | 478 kts | 258° |
| 2026-05-05 14:07 | 33.00714 | -124.79734 | 36080 ft | 477 kts | 258° |
| 2026-05-05 14:07 | 32.98995 | -124.87347 | 36074 ft | 476 kts | 258° |
| 2026-05-05 14:08 | 32.97269 | -124.94968 | 36075 ft | 476 kts | 258° |
| 2026-05-05 14:08 | 32.95539 | -125.02581 | 36078 ft | 475 kts | 258° |
| 2026-05-05 14:09 | 32.94101 | -125.08893 | 36078 ft | 475 kts | 258° |
| 2026-05-05 14:09 | 32.92085 | -125.17716 | 36080 ft | 475 kts | 258° |
| 2026-05-05 14:10 | 32.90628 | -125.24076 | 36078 ft | 476 kts | 258° |
| 2026-05-05 14:10 | 32.88884 | -125.31664 | 36086 ft | 475 kts | 258° |
| 2026-05-05 14:11 | 32.87135 | -125.39247 | 36087 ft | 475 kts | 258° |
| 2026-05-05 14:11 | 32.85383 | -125.46823 | 36085 ft | 475 kts | 258° |
| 2026-05-05 14:12 | 32.83628 | -125.54394 | 36091 ft | 474 kts | 257° |
| 2026-05-05 14:12 | 32.81879 | -125.61910 | 36084 ft | 475 kts | 257° |
| 2026-05-05 14:13 | 32.80101 | -125.69533 | 36094 ft | 476 kts | 257° |
| 2026-05-05 14:13 | 32.78340 | -125.77058 | 36092 ft | 475 kts | 257° |
| 2026-05-05 14:14 | 32.76573 | -125.84586 | 36092 ft | 472 kts | 257° |
| 2026-05-05 14:14 | 32.74804 | -125.92102 | 36089 ft | 472 kts | 257° |
| 2026-05-05 14:15 | 32.73030 | -125.99616 | 36092 ft | 473 kts | 257° |
| 2026-05-05 14:15 | 32.71251 | -126.07132 | 36099 ft | 473 kts | 257° |
| 2026-05-05 14:16 | 32.69467 | -126.14644 | 36102 ft | 473 kts | 257° |
| 2026-05-05 14:16 | 32.67676 | -126.22165 | 36095 ft | 473 kts | 257° |
| 2026-05-05 14:17 | 32.65884 | -126.29663 | 36101 ft | 468 kts | 257° |
| 2026-05-05 14:17 | 32.64109 | -126.37077 | 36098 ft | 467 kts | 257° |
| 2026-05-05 14:18 | 32.62324 | -126.44507 | 36100 ft | 469 kts | 257° |
| 2026-05-05 14:18 | 32.60531 | -126.51948 | 36103 ft | 469 kts | 257° |
| 2026-05-05 14:19 | 32.58759 | -126.59284 | 36104 ft | 464 kts | 258° |
| 2026-05-05 14:19 | 32.56976 | -126.66645 | 36101 ft | 464 kts | 257° |
| 2026-05-05 14:20 | 32.55189 | -126.74002 | 36102 ft | 464 kts | 257° |
| 2026-05-05 14:20 | 32.53402 | -126.81336 | 36111 ft | 462 kts | 258° |
| 2026-05-05 14:21 | 32.51613 | -126.88661 | 36110 ft | 463 kts | 258° |
| 2026-05-05 14:21 | 32.49817 | -126.95989 | 36113 ft | 463 kts | 258° |
| 2026-05-05 14:22 | 32.48019 | -127.03308 | 36112 ft | 459 kts | 258° |
| 2026-05-05 14:22 | 32.46239 | -127.10540 | 36111 ft | 458 kts | 258° |
| 2026-05-05 14:23 | 32.44449 | -127.17787 | 36112 ft | 459 kts | 258° |
| 2026-05-05 14:23 | 32.42647 | -127.25061 | 36113 ft | 460 kts | 258° |
| 2026-05-05 14:24 | 32.40854 | -127.32280 | 36114 ft | 456 kts | 258° |
| 2026-05-05 14:24 | 32.39072 | -127.39436 | 36117 ft | 456 kts | 258° |
| 2026-05-05 14:25 | 32.37275 | -127.46634 | 36117 ft | 456 kts | 258° |
| 2026-05-05 14:25 | 32.35481 | -127.53800 | 36124 ft | 453 kts | 258° |
| 2026-05-05 14:26 | 32.33689 | -127.60942 | 36120 ft | 454 kts | 258° |
| 2026-05-05 14:26 | 32.31886 | -127.68106 | 36130 ft | 455 kts | 258° |
| 2026-05-05 14:27 | 32.30075 | -127.75282 | 36130 ft | 454 kts | 258° |
| 2026-05-05 14:27 | 32.28271 | -127.82412 | 36134 ft | 452 kts | 258° |
| 2026-05-05 14:28 | 32.26458 | -127.89567 | 36139 ft | 457 kts | 258° |
| 2026-05-05 14:28 | 32.24620 | -127.96785 | 36128 ft | 459 kts | 258° |
| 2026-05-05 14:29 | 32.22791 | -128.03959 | 36127 ft | 455 kts | 258° |
| 2026-05-05 14:29 | 32.20977 | -128.11057 | 36134 ft | 455 kts | 258° |
| 2026-05-05 14:30 | 32.19145 | -128.18204 | 36136 ft | 455 kts | 258° |
| 2026-05-05 14:30 | 32.17315 | -128.25323 | 36144 ft | 452 kts | 258° |
| 2026-05-05 14:31 | 32.15486 | -128.32427 | 36142 ft | 453 kts | 258° |
| 2026-05-05 14:31 | 32.13646 | -128.39547 | 36143 ft | 454 kts | 258° |
| 2026-05-05 14:32 | 32.11797 | -128.46687 | 36152 ft | 455 kts | 258° |
| 2026-05-05 14:32 | 32.09947 | -128.53810 | 36155 ft | 454 kts | 258° |
| 2026-05-05 14:33 | 32.08098 | -128.60915 | 36155 ft | 453 kts | 258° |
| 2026-05-05 14:33 | 32.06249 | -128.67997 | 36145 ft | 450 kts | 258° |
| 2026-05-05 14:34 | 32.04406 | -128.75047 | 36139 ft | 450 kts | 258° |
| 2026-05-05 14:34 | 32.02552 | -128.82116 | 36149 ft | 452 kts | 258° |
| 2026-05-05 14:35 | 32.00688 | -128.89202 | 36128 ft | 453 kts | 258° |
| 2026-05-05 14:35 | 31.98834 | -128.96227 | 36147 ft | 446 kts | 259° |
| 2026-05-05 14:36 | 31.97007 | -129.03154 | 36146 ft | 446 kts | 259° |
| 2026-05-05 14:36 | 31.95152 | -129.10149 | 36147 ft | 448 kts | 259° |
| 2026-05-05 14:37 | 31.93297 | -129.17133 | 36163 ft | 446 kts | 259° |
| 2026-05-05 14:37 | 31.91444 | -129.24099 | 36165 ft | 446 kts | 259° |
| 2026-05-05 14:38 | 31.89587 | -129.31053 | 36157 ft | 446 kts | 259° |
| 2026-05-05 14:38 | 31.87726 | -129.38009 | 36156 ft | 445 kts | 258° |
| 2026-05-05 14:39 | 31.85856 | -129.44985 | 36158 ft | 448 kts | 258° |
| 2026-05-05 14:39 | 31.83978 | -129.51968 | 36160 ft | 448 kts | 258° |
| 2026-05-05 14:40 | 31.82097 | -129.58951 | 36143 ft | 448 kts | 258° |
| 2026-05-05 14:40 | 31.80208 | -129.65942 | 36165 ft | 449 kts | 258° |
| 2026-05-05 14:41 | 31.78315 | -129.72932 | 36164 ft | 448 kts | 258° |
| 2026-05-05 14:41 | 31.76424 | -129.79897 | 36163 ft | 447 kts | 258° |
| 2026-05-05 14:42 | 31.74537 | -129.86832 | 36169 ft | 446 kts | 258° |
| 2026-05-05 14:42 | 31.72651 | -129.93747 | 36169 ft | 448 kts | 258° |
| 2026-05-05 14:43 | 31.70744 | -130.00721 | 36170 ft | 449 kts | 258° |
| 2026-05-05 14:43 | 31.68832 | -130.07697 | 36177 ft | 449 kts | 258° |
| 2026-05-05 14:44 | 31.66912 | -130.14687 | 36177 ft | 450 kts | 258° |
| 2026-05-05 14:44 | 31.64988 | -130.21668 | 36178 ft | 449 kts | 258° |
| 2026-05-05 14:45 | 31.63068 | -130.28626 | 36175 ft | 447 kts | 258° |
| 2026-05-05 14:45 | 31.61148 | -130.35566 | 36171 ft | 447 kts | 257° |
| 2026-05-05 14:46 | 31.59223 | -130.42506 | 36176 ft | 447 kts | 257° |
| 2026-05-05 14:46 | 31.57294 | -130.49446 | 36179 ft | 447 kts | 257° |
| 2026-05-05 14:47 | 31.55363 | -130.56376 | 36177 ft | 447 kts | 257° |
| 2026-05-05 14:47 | 31.53428 | -130.63303 | 36177 ft | 447 kts | 257° |
| 2026-05-05 14:48 | 31.51490 | -130.70225 | 36176 ft | 447 kts | 257° |
| 2026-05-05 14:48 | 31.49547 | -130.77148 | 36178 ft | 447 kts | 257° |
| 2026-05-05 14:49 | 31.47612 | -130.84026 | 36181 ft | 447 kts | 257° |
| 2026-05-05 14:49 | 31.45662 | -130.90942 | 36175 ft | 447 kts | 257° |
| 2026-05-05 14:50 | 31.43707 | -130.97860 | 36188 ft | 448 kts | 257° |
| 2026-05-05 14:50 | 31.41740 | -131.04804 | 36188 ft | 450 kts | 257° |
| 2026-05-05 14:51 | 31.39770 | -131.11740 | 36323 ft | 448 kts | 257° |
| 2026-05-05 14:51 | 31.38790 | -131.15186 | 36583 ft | 446 kts | 257° |
| 2026-05-05 14:51 | 31.37809 | -131.18635 | 36775 ft | 446 kts | 257° |
| 2026-05-05 14:52 | 31.36827 | -131.22082 | 36970 ft | 446 kts | 257° |
| 2026-05-05 14:52 | 31.35845 | -131.25519 | 37171 ft | 446 kts | 257° |
| 2026-05-05 14:52 | 31.34863 | -131.28957 | 37364 ft | 445 kts | 257° |
| 2026-05-05 14:52 | 31.33880 | -131.32394 | 37562 ft | 445 kts | 257° |
| 2026-05-05 14:53 | 31.32910 | -131.35780 | 37720 ft | 445 kts | 256° |
| 2026-05-05 14:53 | 31.31926 | -131.39213 | 37897 ft | 445 kts | 256° |
| 2026-05-05 14:53 | 31.30941 | -131.42648 | 38023 ft | 446 kts | 256° |
| 2026-05-05 14:53 | 31.29951 | -131.46091 | 38166 ft | 446 kts | 256° |
| 2026-05-05 14:54 | 31.27961 | -131.53005 | 38189 ft | 449 kts | 256° |
| 2026-05-05 14:54 | 31.25970 | -131.59902 | 38189 ft | 446 kts | 256° |
| 2026-05-05 14:55 | 31.23988 | -131.66760 | 38189 ft | 444 kts | 256° |
| 2026-05-05 14:55 | 31.22005 | -131.73602 | 38188 ft | 445 kts | 256° |
| 2026-05-05 14:56 | 31.20015 | -131.80455 | 38194 ft | 446 kts | 256° |
| 2026-05-05 14:56 | 31.18014 | -131.87329 | 38204 ft | 448 kts | 256° |
| 2026-05-05 14:57 | 31.16342 | -131.93062 | 38210 ft | 448 kts | 256° |
| 2026-05-05 14:57 | 31.14333 | -131.99932 | 38191 ft | 447 kts | 256° |
| 2026-05-05 14:58 | 31.12326 | -132.06783 | 38219 ft | 446 kts | 256° |
| 2026-05-05 14:58 | 31.10314 | -132.13640 | 38216 ft | 448 kts | 256° |
| 2026-05-05 14:59 | 31.08288 | -132.20518 | 38200 ft | 449 kts | 256° |
| 2026-05-05 14:59 | 31.06258 | -132.27396 | 38208 ft | 448 kts | 256° |
| 2026-05-05 15:00 | 31.04570 | -132.33105 | 38205 ft | 448 kts | 256° |
| 2026-05-05 15:00 | 31.02188 | -132.41141 | 38187 ft | 449 kts | 256° |
| 2026-05-05 15:01 | 31.00146 | -132.48013 | 38221 ft | 449 kts | 256° |
| 2026-05-05 15:01 | 30.98095 | -132.54901 | 38221 ft | 449 kts | 256° |
| 2026-05-05 15:02 | 30.96045 | -132.61767 | 38199 ft | 448 kts | 256° |
| 2026-05-05 15:02 | 30.94000 | -132.68608 | 38203 ft | 446 kts | 256° |
| 2026-05-05 15:03 | 30.91957 | -132.75423 | 38209 ft | 446 kts | 256° |
| 2026-05-05 15:03 | 30.89906 | -132.82253 | 38211 ft | 447 kts | 256° |
| 2026-05-05 15:04 | 30.87861 | -132.89044 | 38212 ft | 448 kts | 256° |
| 2026-05-05 15:04 | 30.85796 | -132.95890 | 38217 ft | 448 kts | 256° |
| 2026-05-05 15:05 | 30.82689 | -133.06159 | 38218 ft | 448 kts | 256° |
| 2026-05-05 15:06 | 30.80616 | -133.12993 | 38219 ft | 448 kts | 256° |
| 2026-05-05 15:06 | 30.78540 | -133.19821 | 38221 ft | 448 kts | 256° |
| 2026-05-05 15:07 | 30.76462 | -133.26641 | 38224 ft | 447 kts | 256° |
| 2026-05-05 15:07 | 30.74381 | -133.33459 | 38220 ft | 447 kts | 256° |
| 2026-05-05 15:08 | 30.72299 | -133.40263 | 38221 ft | 446 kts | 256° |
| 2026-05-05 15:08 | 30.70217 | -133.47055 | 38224 ft | 446 kts | 256° |
| 2026-05-05 15:09 | 30.68125 | -133.53864 | 38230 ft | 449 kts | 256° |
| 2026-05-05 15:09 | 30.66020 | -133.60699 | 38237 ft | 450 kts | 256° |
| 2026-05-05 15:10 | 30.63910 | -133.67536 | 38226 ft | 450 kts | 256° |
| 2026-05-05 15:10 | 30.61791 | -133.74390 | 38233 ft | 452 kts | 256° |
| 2026-05-05 15:11 | 30.59678 | -133.81205 | 38232 ft | 451 kts | 256° |
| 2026-05-05 15:11 | 30.57555 | -133.88042 | 38233 ft | 449 kts | 256° |
| 2026-05-05 15:12 | 30.55436 | -133.94851 | 38226 ft | 448 kts | 256° |
| 2026-05-05 15:12 | 30.53313 | -134.01661 | 38231 ft | 450 kts | 256° |
| 2026-05-05 15:13 | 30.51174 | -134.08503 | 38238 ft | 451 kts | 256° |
| 2026-05-05 15:13 | 30.49032 | -134.15343 | 38236 ft | 451 kts | 256° |
| 2026-05-05 15:14 | 30.46886 | -134.22181 | 38243 ft | 451 kts | 256° |
| 2026-05-05 15:14 | 30.44738 | -134.29012 | 38238 ft | 451 kts | 256° |
| 2026-05-05 15:15 | 30.42584 | -134.35846 | 38235 ft | 451 kts | 256° |
| 2026-05-05 15:15 | 30.40427 | -134.42674 | 38213 ft | 451 kts | 255° |
| 2026-05-05 15:16 | 30.38270 | -134.49491 | 38240 ft | 451 kts | 255° |
| 2026-05-05 15:16 | 30.36122 | -134.56262 | 38238 ft | 451 kts | 255° |
| 2026-05-05 15:17 | 30.33960 | -134.63068 | 38235 ft | 450 kts | 255° |
| 2026-05-05 15:17 | 30.31794 | -134.69867 | 38244 ft | 450 kts | 255° |
| 2026-05-05 15:18 | 30.29626 | -134.76663 | 38243 ft | 450 kts | 255° |
| 2026-05-05 15:18 | 30.27453 | -134.83456 | 38240 ft | 450 kts | 255° |
| 2026-05-05 15:19 | 30.25279 | -134.90242 | 38239 ft | 450 kts | 255° |
| 2026-05-05 15:19 | 30.23101 | -134.97027 | 38239 ft | 450 kts | 255° |
| 2026-05-05 15:20 | 30.20918 | -135.03810 | 38246 ft | 451 kts | 255° |
| 2026-05-05 15:20 | 30.18725 | -135.10613 | 38249 ft | 452 kts | 255° |
| 2026-05-05 15:21 | 30.16523 | -135.17429 | 38261 ft | 452 kts | 255° |
| 2026-05-05 15:21 | 30.14317 | -135.24244 | 38259 ft | 453 kts | 255° |
| 2026-05-05 15:22 | 30.12101 | -135.31074 | 38253 ft | 454 kts | 255° |
| 2026-05-05 15:22 | 30.09883 | -135.37898 | 38257 ft | 454 kts | 255° |
| 2026-05-05 15:23 | 30.07662 | -135.44715 | 38248 ft | 453 kts | 254° |
| 2026-05-05 15:23 | 30.05437 | -135.51535 | 38242 ft | 455 kts | 254° |
| 2026-05-05 15:24 | 30.03200 | -135.58374 | 38247 ft | 455 kts | 254° |
| 2026-05-05 15:24 | 30.00960 | -135.65211 | 38249 ft | 456 kts | 254° |
| 2026-05-05 15:25 | 29.98731 | -135.71998 | 38246 ft | 455 kts | 254° |
| 2026-05-05 15:25 | 29.96487 | -135.78817 | 38244 ft | 454 kts | 254° |
| 2026-05-05 15:26 | 29.94238 | -135.85639 | 38247 ft | 455 kts | 254° |
| 2026-05-05 15:26 | 29.91980 | -135.92474 | 38249 ft | 457 kts | 254° |
| 2026-05-05 15:27 | 29.89717 | -135.99312 | 38249 ft | 457 kts | 254° |
| 2026-05-05 15:27 | 29.87446 | -136.06159 | 38251 ft | 457 kts | 254° |
| 2026-05-05 15:28 | 29.85173 | -136.12995 | 38248 ft | 457 kts | 254° |
| 2026-05-05 15:28 | 29.82901 | -136.19817 | 38252 ft | 456 kts | 253° |
| 2026-05-05 15:29 | 29.80641 | -136.26590 | 38258 ft | 456 kts | 253° |
| 2026-05-05 15:29 | 29.78365 | -136.33398 | 38249 ft | 455 kts | 253° |
| 2026-05-05 15:30 | 29.76087 | -136.40196 | 38255 ft | 455 kts | 253° |
| 2026-05-05 15:30 | 29.73803 | -136.47002 | 38249 ft | 456 kts | 253° |
| 2026-05-05 15:31 | 29.71516 | -136.53802 | 38250 ft | 455 kts | 253° |
| 2026-05-05 15:31 | 29.69228 | -136.60591 | 38253 ft | 456 kts | 253° |
| 2026-05-05 15:32 | 29.66930 | -136.67398 | 38257 ft | 457 kts | 253° |
| 2026-05-05 15:32 | 29.64624 | -136.74213 | 38263 ft | 457 kts | 253° |
| 2026-05-05 15:33 | 29.62314 | -136.81028 | 38249 ft | 458 kts | 253° |
| 2026-05-05 15:33 | 29.60003 | -136.87828 | 38250 ft | 456 kts | 253° |
| 2026-05-05 15:34 | 29.57697 | -136.94604 | 38251 ft | 455 kts | 253° |
| 2026-05-05 15:34 | 29.55387 | -137.01379 | 38245 ft | 455 kts | 252° |
| 2026-05-05 15:35 | 29.53074 | -137.08147 | 38247 ft | 455 kts | 252° |
| 2026-05-05 15:35 | 29.50759 | -137.14910 | 38254 ft | 455 kts | 252° |
| 2026-05-05 15:36 | 29.48437 | -137.21682 | 38253 ft | 456 kts | 252° |
| 2026-05-05 15:36 | 29.46110 | -137.28453 | 38254 ft | 456 kts | 252° |
| 2026-05-05 15:37 | 29.43777 | -137.35230 | 38256 ft | 457 kts | 252° |
| 2026-05-05 15:37 | 29.41438 | -137.42008 | 38251 ft | 457 kts | 252° |
| 2026-05-05 15:38 | 29.39094 | -137.48789 | 38260 ft | 458 kts | 252° |
| 2026-05-05 15:38 | 29.36743 | -137.55579 | 38265 ft | 459 kts | 252° |
| 2026-05-05 15:39 | 29.34382 | -137.62382 | 38263 ft | 459 kts | 252° |
| 2026-05-05 15:39 | 29.32036 | -137.69131 | 38257 ft | 458 kts | 251° |
| 2026-05-05 15:40 | 29.29678 | -137.75902 | 38251 ft | 457 kts | 251° |
| 2026-05-05 15:40 | 29.27324 | -137.82646 | 38251 ft | 456 kts | 251° |
| 2026-05-05 15:41 | 29.24963 | -137.89401 | 38255 ft | 458 kts | 251° |
| 2026-05-05 15:41 | 29.22590 | -137.96174 | 38247 ft | 459 kts | 251° |
| 2026-05-05 15:42 | 29.20210 | -138.02955 | 38254 ft | 459 kts | 251° |
| 2026-05-05 15:42 | 29.17829 | -138.09724 | 38252 ft | 457 kts | 251° |
| 2026-05-05 15:43 | 29.15458 | -138.16457 | 38250 ft | 456 kts | 251° |
| 2026-05-05 15:43 | 29.13078 | -138.23201 | 38255 ft | 458 kts | 251° |
| 2026-05-05 15:44 | 29.11091 | -138.28818 | 38251 ft | 459 kts | 251° |
| 2026-05-05 15:44 | 29.08691 | -138.35593 | 38263 ft | 460 kts | 251° |
| 2026-05-05 15:45 | 29.06286 | -138.42371 | 38262 ft | 460 kts | 251° |
| 2026-05-05 15:45 | 29.03879 | -138.49143 | 38263 ft | 459 kts | 250° |
| 2026-05-05 15:46 | 29.01477 | -138.55887 | 38265 ft | 457 kts | 250° |
| 2026-05-05 15:46 | 28.99076 | -138.62615 | 38263 ft | 458 kts | 250° |
| 2026-05-05 15:47 | 28.96662 | -138.69367 | 38254 ft | 460 kts | 250° |
| 2026-05-05 15:47 | 28.94237 | -138.76137 | 38261 ft | 461 kts | 250° |
| 2026-05-05 15:48 | 28.91808 | -138.82905 | 38272 ft | 461 kts | 250° |
| 2026-05-05 15:48 | 28.89377 | -138.89667 | 38261 ft | 461 kts | 250° |
| 2026-05-05 15:49 | 28.86956 | -138.96388 | 38259 ft | 460 kts | 250° |
| 2026-05-05 15:49 | 28.84519 | -139.03142 | 38255 ft | 460 kts | 250° |
| 2026-05-05 15:50 | 28.82080 | -139.09889 | 38248 ft | 460 kts | 250° |
| 2026-05-05 15:50 | 28.79640 | -139.16626 | 38244 ft | 459 kts | 250° |
| 2026-05-05 15:51 | 28.77200 | -139.23351 | 38257 ft | 458 kts | 250° |
| 2026-05-05 15:51 | 28.74761 | -139.30061 | 38261 ft | 458 kts | 250° |
| 2026-05-05 15:52 | 28.72321 | -139.36758 | 38258 ft | 457 kts | 250° |
| 2026-05-05 15:52 | 28.69882 | -139.43446 | 38258 ft | 457 kts | 250° |
| 2026-05-05 15:53 | 28.67445 | -139.50089 | 38252 ft | 458 kts | 250° |
| 2026-05-05 15:53 | 28.64985 | -139.56788 | 38258 ft | 460 kts | 249° |
| 2026-05-05 15:54 | 28.62508 | -139.63518 | 38268 ft | 462 kts | 249° |
| 2026-05-05 15:54 | 28.60025 | -139.70253 | 38267 ft | 460 kts | 249° |
| 2026-05-05 15:55 | 28.57551 | -139.76956 | 38262 ft | 459 kts | 249° |
| 2026-05-05 15:55 | 28.55076 | -139.83645 | 38245 ft | 459 kts | 249° |
| 2026-05-05 15:56 | 28.52595 | -139.90341 | 38252 ft | 460 kts | 249° |
| 2026-05-05 15:56 | 28.50108 | -139.97039 | 38250 ft | 460 kts | 249° |
| 2026-05-05 15:57 | 28.47628 | -140.03704 | 38251 ft | 461 kts | 249° |
| 2026-05-05 15:57 | 28.45112 | -140.10456 | 38246 ft | 461 kts | 249° |
| 2026-05-05 15:58 | 28.42625 | -140.17121 | 38252 ft | 462 kts | 249° |
| 2026-05-05 15:58 | 28.40112 | -140.23841 | 38252 ft | 461 kts | 249° |
| 2026-05-05 15:59 | 28.37608 | -140.30524 | 38244 ft | 459 kts | 249° |
| 2026-05-05 15:59 | 28.35110 | -140.37182 | 38235 ft | 458 kts | 249° |
| 2026-05-05 16:00 | 28.32612 | -140.43824 | 38244 ft | 458 kts | 249° |
| 2026-05-05 16:00 | 28.30108 | -140.50475 | 38245 ft | 459 kts | 249° |
| 2026-05-05 16:01 | 28.27596 | -140.57132 | 38248 ft | 459 kts | 249° |
| 2026-05-05 16:01 | 28.25080 | -140.63792 | 38251 ft | 459 kts | 249° |
| 2026-05-05 16:02 | 28.22559 | -140.70449 | 38255 ft | 460 kts | 249° |
| 2026-05-05 16:02 | 28.20036 | -140.77103 | 38244 ft | 459 kts | 249° |
| 2026-05-05 16:03 | 28.17516 | -140.83736 | 38237 ft | 457 kts | 249° |
| 2026-05-05 16:03 | 28.15001 | -140.90344 | 38231 ft | 458 kts | 249° |
| 2026-05-05 16:04 | 28.12472 | -140.96977 | 38236 ft | 459 kts | 249° |
| 2026-05-05 16:04 | 28.09935 | -141.03620 | 38241 ft | 460 kts | 249° |
| 2026-05-05 16:05 | 28.07398 | -141.10253 | 38235 ft | 458 kts | 249° |
| 2026-05-05 16:05 | 28.04867 | -141.16858 | 38236 ft | 457 kts | 249° |
| 2026-05-05 16:06 | 28.02351 | -141.23410 | 38230 ft | 457 kts | 249° |
| 2026-05-05 16:06 | 27.99815 | -141.30007 | 38234 ft | 458 kts | 249° |
| 2026-05-05 16:07 | 27.97267 | -141.36621 | 38231 ft | 459 kts | 249° |
| 2026-05-05 16:07 | 27.94719 | -141.43225 | 38240 ft | 457 kts | 249° |
| 2026-05-05 16:08 | 27.92177 | -141.49802 | 38235 ft | 456 kts | 249° |
| 2026-05-05 16:08 | 27.89635 | -141.56369 | 38231 ft | 455 kts | 249° |
| 2026-05-05 16:09 | 27.87090 | -141.62930 | 38242 ft | 456 kts | 249° |
| 2026-05-05 16:09 | 27.84539 | -141.69496 | 38244 ft | 457 kts | 249° |
| 2026-05-05 16:10 | 27.81983 | -141.76066 | 38243 ft | 457 kts | 249° |
| 2026-05-05 16:10 | 27.79422 | -141.82636 | 38245 ft | 457 kts | 249° |
| 2026-05-05 16:11 | 27.76859 | -141.89201 | 38248 ft | 457 kts | 249° |
| 2026-05-05 16:12 | 27.71722 | -142.02322 | 38238 ft | 456 kts | 249° |
| 2026-05-05 16:13 | 27.65316 | -142.18629 | 38235 ft | 455 kts | 249° |
| 2026-05-05 16:13 | 27.62742 | -142.25161 | 38238 ft | 456 kts | 249° |
| 2026-05-05 16:14 | 27.57583 | -142.38220 | 38229 ft | 454 kts | 249° |
| 2026-05-05 16:15 | 27.52453 | -142.51164 | 38226 ft | 454 kts | 249° |
| 2026-05-05 16:16 | 27.47289 | -142.64151 | 38225 ft | 454 kts | 249° |
| 2026-05-05 16:17 | 27.43408 | -142.73883 | 38231 ft | 454 kts | 249° |
| 2026-05-05 16:18 | 27.39526 | -142.83594 | 38233 ft | 453 kts | 249° |
| 2026-05-05 16:19 | 27.35663 | -142.93236 | 38231 ft | 452 kts | 249° |
| 2026-05-05 16:19 | 27.31778 | -143.02906 | 38215 ft | 452 kts | 249° |
| 2026-05-05 16:20 | 27.26596 | -143.15772 | 38229 ft | 452 kts | 249° |
| 2026-05-05 16:22 | 27.20081 | -143.31888 | 38230 ft | 453 kts | 248° |
| 2026-05-05 16:23 | 27.14870 | -143.44731 | 38228 ft | 451 kts | 248° |
| 2026-05-05 16:23 | 27.10967 | -143.54325 | 38227 ft | 451 kts | 248° |
| 2026-05-05 16:24 | 27.08354 | -143.60736 | 38231 ft | 453 kts | 248° |
| 2026-05-05 16:25 | 27.04410 | -143.70391 | 38239 ft | 454 kts | 248° |
| 2026-05-05 16:25 | 27.00464 | -143.80028 | 38223 ft | 453 kts | 248° |
| 2026-05-05 16:26 | 26.95184 | -143.92889 | 38229 ft | 455 kts | 248° |
| 2026-05-05 16:27 | 26.92551 | -143.99288 | 38235 ft | 454 kts | 248° |
| 2026-05-05 16:27 | 26.89908 | -144.05700 | 38214 ft | 453 kts | 248° |
| 2026-05-05 16:28 | 26.87267 | -144.12097 | 38216 ft | 451 kts | 248° |
| 2026-05-05 16:28 | 26.84630 | -144.18475 | 38216 ft | 452 kts | 248° |
| 2026-05-05 16:29 | 26.81982 | -144.24870 | 38222 ft | 453 kts | 248° |
| 2026-05-05 16:29 | 26.79329 | -144.31267 | 38220 ft | 453 kts | 248° |
| 2026-05-05 16:30 | 26.76674 | -144.37659 | 38220 ft | 452 kts | 248° |
| 2026-05-05 16:30 | 26.74020 | -144.44037 | 38218 ft | 451 kts | 248° |
| 2026-05-05 16:31 | 26.71375 | -144.50385 | 38218 ft | 450 kts | 248° |
| 2026-05-05 16:31 | 26.69179 | -144.55648 | 38218 ft | 449 kts | 248° |
| 2026-05-05 16:32 | 26.66529 | -144.61992 | 38217 ft | 452 kts | 248° |
| 2026-05-05 16:32 | 26.63426 | -144.69405 | 38223 ft | 453 kts | 247° |
| 2026-05-05 16:33 | 26.61186 | -144.74749 | 38226 ft | 453 kts | 248° |
| 2026-05-05 16:33 | 26.58518 | -144.81104 | 38214 ft | 450 kts | 248° |
| 2026-05-05 16:34 | 26.55857 | -144.87436 | 38211 ft | 450 kts | 247° |
| 2026-05-05 16:34 | 26.53195 | -144.93757 | 38209 ft | 450 kts | 247° |
| 2026-05-05 16:35 | 26.50533 | -145.00072 | 38207 ft | 450 kts | 247° |
| 2026-05-05 16:35 | 26.47883 | -145.06347 | 38207 ft | 450 kts | 247° |
| 2026-05-05 16:36 | 26.45209 | -145.12670 | 38212 ft | 451 kts | 247° |
| 2026-05-05 16:36 | 26.42532 | -145.18990 | 38207 ft | 450 kts | 247° |
| 2026-05-05 16:37 | 26.39859 | -145.25291 | 38206 ft | 449 kts | 247° |
| 2026-05-05 16:37 | 26.37186 | -145.31581 | 38207 ft | 449 kts | 247° |
| 2026-05-05 16:38 | 26.34503 | -145.37889 | 38210 ft | 451 kts | 247° |
| 2026-05-05 16:38 | 26.31809 | -145.44211 | 38215 ft | 452 kts | 247° |
| 2026-05-05 16:39 | 26.29111 | -145.50532 | 38205 ft | 450 kts | 247° |
| 2026-05-05 16:39 | 26.26425 | -145.56817 | 38203 ft | 448 kts | 247° |
| 2026-05-05 16:40 | 26.23746 | -145.63076 | 38197 ft | 448 kts | 247° |
| 2026-05-05 16:40 | 26.21059 | -145.69345 | 38197 ft | 448 kts | 247° |
| 2026-05-05 16:41 | 26.18373 | -145.75602 | 38199 ft | 447 kts | 247° |
| 2026-05-05 16:41 | 26.15686 | -145.81852 | 38206 ft | 447 kts | 247° |
| 2026-05-05 16:42 | 26.13012 | -145.88061 | 38201 ft | 447 kts | 247° |
| 2026-05-05 16:42 | 26.10325 | -145.94294 | 38197 ft | 447 kts | 247° |
| 2026-05-05 16:43 | 26.07630 | -146.00536 | 38198 ft | 448 kts | 247° |
| 2026-05-05 16:43 | 26.04928 | -146.06784 | 38202 ft | 449 kts | 247° |
| 2026-05-05 16:44 | 26.02220 | -146.13038 | 38203 ft | 449 kts | 247° |
| 2026-05-05 16:44 | 25.99505 | -146.19300 | 38206 ft | 450 kts | 247° |
| 2026-05-05 16:45 | 25.96802 | -146.25538 | 38189 ft | 445 kts | 247° |
| 2026-05-05 16:45 | 25.94114 | -146.31729 | 38196 ft | 446 kts | 247° |
| 2026-05-05 16:46 | 25.91424 | -146.37914 | 38180 ft | 442 kts | 247° |
| 2026-05-05 16:47 | 25.86165 | -146.49988 | 38182 ft | 440 kts | 247° |
| 2026-05-05 16:49 | 25.75186 | -146.75079 | 38182 ft | 439 kts | 247° |
| 2026-05-05 16:49 | 25.72510 | -146.81172 | 38180 ft | 440 kts | 247° |
| 2026-05-05 16:50 | 25.69831 | -146.87265 | 38178 ft | 439 kts | 247° |
| 2026-05-05 16:50 | 25.67588 | -146.92358 | 38176 ft | 438 kts | 247° |
| 2026-05-05 16:51 | 25.64488 | -146.99388 | 38179 ft | 436 kts | 247° |
| 2026-05-05 16:51 | 25.61820 | -147.05433 | 38179 ft | 437 kts | 247° |
| 2026-05-05 16:52 | 25.59577 | -147.10506 | 38181 ft | 438 kts | 247° |
| 2026-05-05 16:52 | 25.56906 | -147.16538 | 38190 ft | 439 kts | 247° |
| 2026-05-05 16:53 | 25.54209 | -147.22622 | 38190 ft | 439 kts | 247° |
| 2026-05-05 16:53 | 25.51519 | -147.28682 | 38184 ft | 438 kts | 247° |
| 2026-05-05 16:54 | 25.48835 | -147.34720 | 38174 ft | 436 kts | 247° |
| 2026-05-05 16:54 | 25.46159 | -147.40733 | 38177 ft | 436 kts | 247° |
| 2026-05-05 16:55 | 25.43476 | -147.46752 | 38180 ft | 436 kts | 246° |
| 2026-05-05 16:55 | 25.40786 | -147.52779 | 38181 ft | 437 kts | 246° |
| 2026-05-05 16:56 | 25.38089 | -147.58813 | 38176 ft | 438 kts | 246° |
| 2026-05-05 16:56 | 25.35385 | -147.64855 | 38178 ft | 439 kts | 246° |
| 2026-05-05 16:57 | 25.32679 | -147.70892 | 38167 ft | 438 kts | 246° |
| 2026-05-05 16:57 | 25.29983 | -147.76899 | 38162 ft | 435 kts | 246° |
| 2026-05-05 16:58 | 25.27294 | -147.82883 | 38161 ft | 434 kts | 246° |
| 2026-05-05 16:58 | 25.24605 | -147.88858 | 38161 ft | 434 kts | 246° |
| 2026-05-05 16:59 | 25.21918 | -147.94823 | 38166 ft | 434 kts | 246° |
| 2026-05-05 16:59 | 25.19223 | -148.00795 | 38163 ft | 435 kts | 246° |
| 2026-05-05 17:00 | 25.16542 | -148.06730 | 38163 ft | 435 kts | 246° |
| 2026-05-05 17:00 | 25.13847 | -148.12687 | 38178 ft | 433 kts | 246° |
| 2026-05-05 17:01 | 25.11152 | -148.18637 | 38173 ft | 433 kts | 246° |
| 2026-05-05 17:01 | 25.08454 | -148.24586 | 38159 ft | 433 kts | 246° |
| 2026-05-05 17:02 | 25.05753 | -148.30532 | 38162 ft | 433 kts | 246° |
| 2026-05-05 17:02 | 25.03052 | -148.36470 | 38155 ft | 433 kts | 246° |
| 2026-05-05 17:03 | 25.00351 | -148.42403 | 38164 ft | 433 kts | 246° |
| 2026-05-05 17:03 | 24.97645 | -148.48337 | 38161 ft | 433 kts | 246° |
| 2026-05-05 17:04 | 24.94940 | -148.54262 | 38156 ft | 431 kts | 246° |
| 2026-05-05 17:04 | 24.92240 | -148.60168 | 38159 ft | 432 kts | 246° |
| 2026-05-05 17:05 | 24.89548 | -148.66049 | 38156 ft | 434 kts | 246° |
| 2026-05-05 17:05 | 24.86826 | -148.71988 | 38166 ft | 435 kts | 246° |
| 2026-05-05 17:06 | 24.84097 | -148.77935 | 38168 ft | 436 kts | 246° |
| 2026-05-05 17:06 | 24.81366 | -148.83877 | 38166 ft | 434 kts | 246° |
| 2026-05-05 17:07 | 24.78644 | -148.89793 | 38163 ft | 432 kts | 246° |
| 2026-05-05 17:07 | 24.75929 | -148.95686 | 38149 ft | 432 kts | 246° |
| 2026-05-05 17:08 | 24.73207 | -149.01585 | 38152 ft | 433 kts | 246° |
| 2026-05-05 17:08 | 24.70475 | -149.07499 | 38163 ft | 434 kts | 246° |
| 2026-05-05 17:09 | 24.67738 | -149.13417 | 38162 ft | 434 kts | 246° |
| 2026-05-05 17:09 | 24.65000 | -149.19331 | 38164 ft | 434 kts | 246° |
| 2026-05-05 17:10 | 24.62257 | -149.25246 | 38135 ft | 434 kts | 246° |
| 2026-05-05 17:10 | 24.59522 | -149.31136 | 38146 ft | 432 kts | 246° |
| 2026-05-05 17:11 | 24.56788 | -149.37017 | 38154 ft | 432 kts | 246° |
| 2026-05-05 17:11 | 24.54072 | -149.42851 | 38147 ft | 432 kts | 246° |
| 2026-05-05 17:12 | 24.51338 | -149.48718 | 38149 ft | 431 kts | 246° |
| 2026-05-05 17:12 | 24.48599 | -149.54586 | 38145 ft | 431 kts | 246° |
| 2026-05-05 17:13 | 24.45864 | -149.60440 | 38145 ft | 431 kts | 246° |
| 2026-05-05 17:13 | 24.43125 | -149.66294 | 38145 ft | 430 kts | 246° |
| 2026-05-05 17:14 | 24.40392 | -149.72131 | 38141 ft | 430 kts | 246° |
| 2026-05-05 17:14 | 24.37651 | -149.77973 | 38145 ft | 431 kts | 246° |
| 2026-05-05 17:15 | 24.34905 | -149.83822 | 38142 ft | 431 kts | 246° |
| 2026-05-05 17:15 | 24.32155 | -149.89671 | 38145 ft | 432 kts | 245° |
| 2026-05-05 17:16 | 24.29400 | -149.95521 | 38148 ft | 432 kts | 245° |
| 2026-05-05 17:16 | 24.26660 | -150.01335 | 38149 ft | 432 kts | 245° |
| 2026-05-05 17:17 | 24.23900 | -150.07182 | 38140 ft | 432 kts | 245° |
| 2026-05-05 17:17 | 24.21134 | -150.13036 | 38142 ft | 433 kts | 245° |
| 2026-05-05 17:18 | 24.18363 | -150.18893 | 38149 ft | 433 kts | 245° |
| 2026-05-05 17:18 | 24.15593 | -150.24741 | 38146 ft | 432 kts | 245° |
| 2026-05-05 17:19 | 24.12823 | -150.30581 | 38145 ft | 431 kts | 245° |
| 2026-05-05 17:19 | 24.10058 | -150.36403 | 38142 ft | 430 kts | 245° |
| 2026-05-05 17:20 | 24.07315 | -150.42172 | 38138 ft | 430 kts | 245° |
| 2026-05-05 17:20 | 24.04553 | -150.47975 | 38137 ft | 430 kts | 245° |
| 2026-05-05 17:21 | 24.01778 | -150.53798 | 38147 ft | 432 kts | 245° |
| 2026-05-05 17:22 | 23.97600 | -150.62550 | 38146 ft | 433 kts | 245° |
| 2026-05-05 17:22 | 23.94810 | -150.68386 | 38147 ft | 433 kts | 245° |
| 2026-05-05 17:23 | 23.92014 | -150.74227 | 38146 ft | 433 kts | 245° |
| 2026-05-05 17:23 | 23.89220 | -150.80056 | 38147 ft | 433 kts | 245° |
| 2026-05-05 17:24 | 23.86424 | -150.85884 | 38132 ft | 433 kts | 245° |
| 2026-05-05 17:24 | 23.83641 | -150.91677 | 38131 ft | 433 kts | 245° |
| 2026-05-05 17:25 | 23.80838 | -150.97503 | 38143 ft | 433 kts | 245° |
| 2026-05-05 17:25 | 23.78032 | -151.03331 | 38144 ft | 434 kts | 245° |
| 2026-05-05 17:26 | 23.75223 | -151.09156 | 38138 ft | 434 kts | 245° |
| 2026-05-05 17:26 | 23.72413 | -151.14978 | 38139 ft | 434 kts | 245° |
| 2026-05-05 17:27 | 23.69599 | -151.20799 | 38137 ft | 434 kts | 245° |
| 2026-05-05 17:27 | 23.66784 | -151.26616 | 38128 ft | 433 kts | 245° |
| 2026-05-05 17:28 | 23.63984 | -151.32391 | 38118 ft | 421 kts | 245° |
| 2026-05-05 17:28 | 23.62635 | -151.35170 | 38087 ft | 408 kts | 245° |
| 2026-05-05 17:28 | 23.61342 | -151.37834 | 38011 ft | 388 kts | 245° |
| 2026-05-05 17:28 | 23.60111 | -151.40371 | 37910 ft | 367 kts | 245° |
| 2026-05-05 17:29 | 23.58954 | -151.42749 | 37697 ft | 343 kts | 245° |
| 2026-05-05 17:29 | 23.57849 | -151.45030 | 37415 ft | 338 kts | 245° |
| 2026-05-05 17:29 | 23.56753 | -151.47291 | 37084 ft | 337 kts | 245° |
| 2026-05-05 17:29 | 23.55654 | -151.49552 | 36655 ft | 338 kts | 245° |
| 2026-05-05 17:30 | 23.54548 | -151.51822 | 36236 ft | 340 kts | 245° |
| 2026-05-05 17:30 | 23.53452 | -151.54072 | 35842 ft | 341 kts | 245° |
| 2026-05-05 17:30 | 23.52337 | -151.56362 | 35436 ft | 343 kts | 245° |
| 2026-05-05 17:30 | 23.51215 | -151.58666 | 35032 ft | 345 kts | 245° |
| 2026-05-05 17:31 | 23.50089 | -151.60974 | 34375 ft | 347 kts | 245° |
| 2026-05-05 17:31 | 23.48950 | -151.63311 | 33593 ft | 351 kts | 245° |
| 2026-05-05 17:31 | 23.47799 | -151.65668 | 32866 ft | 353 kts | 245° |
| 2026-05-05 17:31 | 23.46644 | -151.68035 | 32110 ft | 356 kts | 245° |
| 2026-05-05 17:32 | 23.45460 | -151.70458 | 31343 ft | 359 kts | 244° |
| 2026-05-05 17:32 | 23.44299 | -151.72834 | 30639 ft | 361 kts | 244° |
| 2026-05-05 17:32 | 23.43098 | -151.75291 | 29823 ft | 364 kts | 244° |
| 2026-05-05 17:32 | 23.41920 | -151.77699 | 28964 ft | 366 kts | 244° |
| 2026-05-05 17:33 | 23.40717 | -151.80156 | 28105 ft | 369 kts | 244° |
| 2026-05-05 17:33 | 23.39505 | -151.82630 | 27213 ft | 372 kts | 244° |
| 2026-05-05 17:33 | 23.38284 | -151.85124 | 26326 ft | 374 kts | 244° |
| 2026-05-05 17:33 | 23.37053 | -151.87634 | 25498 ft | 376 kts | 244° |
| 2026-05-05 17:34 | 23.35832 | -151.90121 | 25159 ft | 371 kts | 244° |
| 2026-05-05 17:34 | 23.34601 | -151.92633 | 25169 ft | 383 kts | 244° |
| 2026-05-05 17:34 | 23.33334 | -151.95217 | 25162 ft | 389 kts | 244° |
| 2026-05-05 17:34 | 23.32054 | -151.97819 | 25160 ft | 390 kts | 244° |
| 2026-05-05 17:35 | 23.30773 | -152.00423 | 25153 ft | 391 kts | 244° |
| 2026-05-05 17:35 | 23.29492 | -152.03029 | 25149 ft | 391 kts | 244° |
| 2026-05-05 17:35 | 23.28212 | -152.05632 | 25144 ft | 389 kts | 244° |
| 2026-05-05 17:35 | 23.26939 | -152.08217 | 25150 ft | 390 kts | 244° |
| 2026-05-05 17:36 | 23.25654 | -152.10829 | 25143 ft | 393 kts | 244° |
| 2026-05-05 17:36 | 23.24364 | -152.13446 | 25150 ft | 393 kts | 244° |
| 2026-05-05 17:36 | 23.23076 | -152.16057 | 25150 ft | 392 kts | 244° |
| 2026-05-05 17:36 | 23.21788 | -152.18669 | 25150 ft | 391 kts | 244° |
| 2026-05-05 17:37 | 23.20502 | -152.21275 | 25148 ft | 390 kts | 244° |
| 2026-05-05 17:37 | 23.19652 | -152.22996 | 25152 ft | 390 kts | 244° |
| 2026-05-05 17:37 | 23.17953 | -152.26435 | 25146 ft | 389 kts | 244° |
| 2026-05-05 17:37 | 23.16671 | -152.29030 | 25143 ft | 390 kts | 244° |
| 2026-05-05 17:38 | 23.15388 | -152.31624 | 25149 ft | 390 kts | 244° |
| 2026-05-05 17:38 | 23.14103 | -152.34220 | 25146 ft | 391 kts | 244° |
| 2026-05-05 17:38 | 23.12816 | -152.36819 | 25148 ft | 391 kts | 244° |
| 2026-05-05 17:38 | 23.11527 | -152.39423 | 25148 ft | 391 kts | 243° |
| 2026-05-05 17:39 | 23.10235 | -152.42029 | 25146 ft | 391 kts | 243° |
| 2026-05-05 17:39 | 23.08944 | -152.44632 | 25145 ft | 391 kts | 243° |
| 2026-05-05 17:39 | 23.07657 | -152.47227 | 25144 ft | 390 kts | 243° |
| 2026-05-05 17:39 | 23.06370 | -152.49820 | 25144 ft | 390 kts | 243° |
| 2026-05-05 17:40 | 23.05084 | -152.52410 | 25140 ft | 391 kts | 243° |
| 2026-05-05 17:40 | 23.03790 | -152.55013 | 25141 ft | 391 kts | 243° |
| 2026-05-05 17:40 | 23.02498 | -152.57612 | 25141 ft | 391 kts | 243° |
| 2026-05-05 17:40 | 23.01640 | -152.59334 | 25141 ft | 391 kts | 243° |
| 2026-05-05 17:41 | 23.00342 | -152.61924 | 25135 ft | 390 kts | 243° |
| 2026-05-05 17:41 | 22.99041 | -152.64510 | 25134 ft | 390 kts | 243° |
| 2026-05-05 17:41 | 22.97745 | -152.67095 | 25132 ft | 390 kts | 243° |
| 2026-05-05 17:41 | 22.96451 | -152.69677 | 25135 ft | 390 kts | 243° |
| 2026-05-05 17:42 | 22.95154 | -152.72261 | 25132 ft | 389 kts | 243° |
| 2026-05-05 17:42 | 22.93858 | -152.74840 | 25133 ft | 389 kts | 243° |
| 2026-05-05 17:42 | 22.92563 | -152.77418 | 25127 ft | 389 kts | 243° |
| 2026-05-05 17:42 | 22.91268 | -152.79992 | 25131 ft | 389 kts | 243° |
| 2026-05-05 17:43 | 22.89975 | -152.82565 | 25128 ft | 387 kts | 243° |
| 2026-05-05 17:43 | 22.88680 | -152.85138 | 25135 ft | 390 kts | 243° |
| 2026-05-05 17:43 | 22.87375 | -152.87730 | 25138 ft | 391 kts | 243° |
| 2026-05-05 17:43 | 22.86070 | -152.90319 | 25140 ft | 391 kts | 243° |
| 2026-05-05 17:44 | 22.84765 | -152.92908 | 25143 ft | 391 kts | 243° |
| 2026-05-05 17:44 | 22.83459 | -152.95497 | 25143 ft | 391 kts | 243° |
| 2026-05-05 17:44 | 22.82153 | -152.98086 | 25145 ft | 391 kts | 243° |
| 2026-05-05 17:44 | 22.80847 | -153.00673 | 25144 ft | 391 kts | 243° |
| 2026-05-05 17:45 | 22.79555 | -153.03230 | 25145 ft | 391 kts | 243° |
| 2026-05-05 17:45 | 22.78250 | -153.05812 | 25146 ft | 391 kts | 243° |
| 2026-05-05 17:45 | 22.76943 | -153.08398 | 25146 ft | 391 kts | 243° |
| 2026-05-05 17:45 | 22.75636 | -153.10980 | 25146 ft | 391 kts | 243° |
| 2026-05-05 17:46 | 22.74331 | -153.13559 | 25140 ft | 390 kts | 243° |
| 2026-05-05 17:46 | 22.73026 | -153.16137 | 25141 ft | 390 kts | 243° |
| 2026-05-05 17:46 | 22.71723 | -153.18708 | 25139 ft | 389 kts | 243° |
| 2026-05-05 17:46 | 22.70421 | -153.21276 | 25136 ft | 389 kts | 243° |
| 2026-05-05 17:47 | 22.69121 | -153.23841 | 25141 ft | 388 kts | 243° |
| 2026-05-05 17:47 | 22.67821 | -153.26403 | 25140 ft | 388 kts | 243° |
| 2026-05-05 17:47 | 22.66520 | -153.28965 | 25137 ft | 389 kts | 243° |
| 2026-05-05 17:47 | 22.65217 | -153.31531 | 25141 ft | 389 kts | 243° |
| 2026-05-05 17:48 | 22.63909 | -153.34105 | 25132 ft | 390 kts | 243° |
| 2026-05-05 17:48 | 22.62598 | -153.36684 | 25131 ft | 391 kts | 243° |
| 2026-05-05 17:48 | 22.61286 | -153.39262 | 25134 ft | 392 kts | 243° |
| 2026-05-05 17:48 | 22.59970 | -153.41848 | 25133 ft | 392 kts | 243° |
| 2026-05-05 17:49 | 22.58656 | -153.44429 | 25130 ft | 392 kts | 243° |
| 2026-05-05 17:49 | 22.57342 | -153.47008 | 25133 ft | 391 kts | 243° |
| 2026-05-05 17:49 | 22.56029 | -153.49584 | 25133 ft | 391 kts | 243° |
| 2026-05-05 17:49 | 22.54715 | -153.52160 | 25124 ft | 391 kts | 243° |
| 2026-05-05 17:50 | 22.53402 | -153.54734 | 25130 ft | 391 kts | 243° |
| 2026-05-05 17:50 | 22.52088 | -153.57307 | 25127 ft | 391 kts | 243° |
| 2026-05-05 17:50 | 22.50775 | -153.59879 | 25126 ft | 390 kts | 243° |
| 2026-05-05 17:50 | 22.49463 | -153.62445 | 25127 ft | 390 kts | 243° |
| 2026-05-05 17:51 | 22.48167 | -153.64981 | 25123 ft | 390 kts | 243° |
| 2026-05-05 17:51 | 22.46856 | -153.67543 | 25121 ft | 389 kts | 243° |
| 2026-05-05 17:51 | 22.45543 | -153.70109 | 25122 ft | 389 kts | 243° |
| 2026-05-05 17:51 | 22.44234 | -153.72665 | 25122 ft | 389 kts | 243° |
| 2026-05-05 17:52 | 22.42924 | -153.75223 | 25124 ft | 389 kts | 243° |
| 2026-05-05 17:52 | 22.41616 | -153.77776 | 25118 ft | 388 kts | 243° |
| 2026-05-05 17:52 | 22.40302 | -153.80339 | 25122 ft | 391 kts | 243° |
| 2026-05-05 17:52 | 22.38982 | -153.82911 | 25125 ft | 392 kts | 243° |
| 2026-05-05 17:53 | 22.37659 | -153.85488 | 25122 ft | 392 kts | 243° |
| 2026-05-05 17:53 | 22.36472 | -153.88123 | 25136 ft | 389 kts | 252° |
| 2026-05-05 17:53 | 22.35768 | -153.90939 | 25139 ft | 389 kts | 259° |
| 2026-05-05 17:53 | 22.35193 | -153.93799 | 25137 ft | 389 kts | 258° |
| 2026-05-05 17:54 | 22.34622 | -153.96658 | 25139 ft | 390 kts | 258° |
| 2026-05-05 17:54 | 22.34052 | -153.99522 | 25138 ft | 390 kts | 258° |
| 2026-05-05 17:54 | 22.33481 | -154.02381 | 25139 ft | 390 kts | 258° |
| 2026-05-05 17:54 | 22.32907 | -154.05239 | 25139 ft | 389 kts | 258° |
| 2026-05-05 17:55 | 22.32335 | -154.08091 | 25131 ft | 389 kts | 258° |
| 2026-05-05 17:55 | 22.31763 | -154.10946 | 25130 ft | 388 kts | 258° |
| 2026-05-05 17:55 | 22.31192 | -154.13787 | 25130 ft | 387 kts | 258° |
| 2026-05-05 17:55 | 22.30621 | -154.16627 | 25126 ft | 387 kts | 258° |
| 2026-05-05 17:56 | 22.30049 | -154.19472 | 25126 ft | 388 kts | 258° |
| 2026-05-05 17:56 | 22.29475 | -154.22319 | 25128 ft | 389 kts | 258° |
| 2026-05-05 17:56 | 22.28899 | -154.25176 | 25132 ft | 389 kts | 258° |
| 2026-05-05 17:56 | 22.28323 | -154.28031 | 25133 ft | 390 kts | 258° |
| 2026-05-05 17:57 | 22.27745 | -154.30893 | 25135 ft | 390 kts | 258° |
| 2026-05-05 17:57 | 22.27167 | -154.33752 | 25134 ft | 389 kts | 258° |
| 2026-05-05 17:57 | 22.26597 | -154.36568 | 25135 ft | 388 kts | 258° |
| 2026-05-05 17:57 | 22.26021 | -154.39412 | 25134 ft | 387 kts | 258° |
| 2026-05-05 17:58 | 22.25445 | -154.42253 | 25133 ft | 387 kts | 258° |
| 2026-05-05 17:58 | 22.24869 | -154.45095 | 25133 ft | 388 kts | 258° |
| 2026-05-05 17:58 | 22.24291 | -154.47939 | 25124 ft | 389 kts | 258° |
| 2026-05-05 17:58 | 22.23710 | -154.50796 | 25125 ft | 390 kts | 258° |
| 2026-05-05 17:59 | 22.23128 | -154.53656 | 25125 ft | 389 kts | 258° |
| 2026-05-05 17:59 | 22.22547 | -154.56507 | 25124 ft | 389 kts | 258° |
| 2026-05-05 17:59 | 22.21966 | -154.59355 | 25125 ft | 389 kts | 258° |
| 2026-05-05 17:59 | 22.21385 | -154.62202 | 25124 ft | 389 kts | 258° |
| 2026-05-05 18:00 | 22.20803 | -154.65051 | 25122 ft | 388 kts | 258° |
| 2026-05-05 18:00 | 22.20222 | -154.67894 | 25122 ft | 388 kts | 258° |
| 2026-05-05 18:00 | 22.19641 | -154.70732 | 25120 ft | 387 kts | 258° |
| 2026-05-05 18:00 | 22.19060 | -154.73567 | 25120 ft | 387 kts | 258° |
| 2026-05-05 18:01 | 22.18479 | -154.76406 | 25121 ft | 388 kts | 258° |
| 2026-05-05 18:01 | 22.17895 | -154.79248 | 25121 ft | 389 kts | 258° |
| 2026-05-05 18:01 | 22.17309 | -154.82101 | 25126 ft | 390 kts | 258° |
| 2026-05-05 18:01 | 22.16721 | -154.84958 | 25132 ft | 390 kts | 258° |
| 2026-05-05 18:02 | 22.16133 | -154.87816 | 25133 ft | 390 kts | 258° |
| 2026-05-05 18:02 | 22.15546 | -154.90669 | 25133 ft | 389 kts | 258° |
| 2026-05-05 18:02 | 22.14958 | -154.93520 | 25132 ft | 390 kts | 258° |
| 2026-05-05 18:02 | 22.14369 | -154.96375 | 25132 ft | 390 kts | 258° |
| 2026-05-05 18:03 | 22.13787 | -154.99191 | 25124 ft | 389 kts | 258° |
| 2026-05-05 18:03 | 22.13200 | -155.02031 | 25122 ft | 385 kts | 258° |
| 2026-05-05 18:03 | 22.12624 | -155.04809 | 24724 ft | 378 kts | 258° |
| 2026-05-05 18:03 | 22.12048 | -155.07593 | 23950 ft | 382 kts | 258° |
| 2026-05-05 18:04 | 22.11467 | -155.10400 | 23158 ft | 385 kts | 258° |
| 2026-05-05 18:04 | 22.10880 | -155.13225 | 22291 ft | 387 kts | 258° |
| 2026-05-05 18:04 | 22.10291 | -155.16063 | 21448 ft | 389 kts | 258° |
| 2026-05-05 18:04 | 22.09703 | -155.18888 | 21120 ft | 380 kts | 258° |
| 2026-05-05 18:05 | 22.09129 | -155.21649 | 21129 ft | 380 kts | 258° |
| 2026-05-05 18:05 | 22.08543 | -155.24465 | 21130 ft | 390 kts | 258° |
| 2026-05-05 18:05 | 22.07947 | -155.27325 | 21127 ft | 391 kts | 258° |
| 2026-05-05 18:05 | 22.07346 | -155.30199 | 21129 ft | 393 kts | 258° |
| 2026-05-05 18:06 | 22.06746 | -155.33072 | 21128 ft | 393 kts | 258° |
| 2026-05-05 18:06 | 22.06349 | -155.34972 | 21126 ft | 392 kts | 258° |
| 2026-05-05 18:06 | 22.05546 | -155.38815 | 21123 ft | 393 kts | 258° |
| 2026-05-05 18:06 | 22.04943 | -155.41695 | 21123 ft | 394 kts | 258° |
| 2026-05-05 18:07 | 22.04340 | -155.44570 | 21127 ft | 393 kts | 258° |
| 2026-05-05 18:07 | 22.03737 | -155.47441 | 21127 ft | 392 kts | 258° |
| 2026-05-05 18:07 | 22.03136 | -155.50306 | 21125 ft | 392 kts | 258° |
| 2026-05-05 18:07 | 22.02533 | -155.53172 | 21124 ft | 391 kts | 258° |
| 2026-05-05 18:08 | 22.01932 | -155.56031 | 21123 ft | 391 kts | 258° |
| 2026-05-05 18:08 | 22.01338 | -155.58853 | 21121 ft | 391 kts | 258° |
| 2026-05-05 18:08 | 22.00735 | -155.61712 | 21122 ft | 392 kts | 258° |
| 2026-05-05 18:08 | 22.00131 | -155.64577 | 21119 ft | 392 kts | 258° |
| 2026-05-05 18:09 | 21.99526 | -155.67440 | 21120 ft | 392 kts | 258° |
| 2026-05-05 18:09 | 21.98920 | -155.70308 | 21121 ft | 393 kts | 258° |
| 2026-05-05 18:09 | 21.98314 | -155.73178 | 21121 ft | 393 kts | 258° |
| 2026-05-05 18:09 | 21.97706 | -155.76046 | 21122 ft | 393 kts | 258° |
| 2026-05-05 18:10 | 21.97098 | -155.78915 | 21117 ft | 392 kts | 258° |
| 2026-05-05 18:10 | 21.96491 | -155.81778 | 21117 ft | 392 kts | 258° |
| 2026-05-05 18:10 | 21.95883 | -155.84643 | 21116 ft | 392 kts | 258° |
| 2026-05-05 18:10 | 21.95275 | -155.87506 | 21115 ft | 392 kts | 258° |
| 2026-05-05 18:11 | 21.94666 | -155.90368 | 21118 ft | 392 kts | 258° |
| 2026-05-05 18:11 | 21.94057 | -155.93229 | 21120 ft | 392 kts | 258° |
| 2026-05-05 18:11 | 21.93448 | -155.96087 | 21117 ft | 391 kts | 258° |
| 2026-05-05 18:11 | 21.92840 | -155.98939 | 21117 ft | 391 kts | 258° |
| 2026-05-05 18:12 | 21.92231 | -156.01792 | 21115 ft | 391 kts | 258° |
| 2026-05-05 18:12 | 21.91621 | -156.04646 | 21114 ft | 391 kts | 258° |
| 2026-05-05 18:12 | 21.91010 | -156.07503 | 21116 ft | 392 kts | 258° |
| 2026-05-05 18:12 | 21.90398 | -156.10364 | 21102 ft | 394 kts | 257° |
| 2026-05-05 18:13 | 21.89782 | -156.13240 | 21102 ft | 394 kts | 257° |
| 2026-05-05 18:13 | 21.89167 | -156.16111 | 21102 ft | 393 kts | 257° |
| 2026-05-05 18:13 | 21.88551 | -156.18979 | 21100 ft | 393 kts | 257° |
| 2026-05-05 18:13 | 21.87936 | -156.21842 | 21100 ft | 392 kts | 257° |
| 2026-05-05 18:14 | 21.87321 | -156.24703 | 21102 ft | 392 kts | 257° |
| 2026-05-05 18:14 | 21.86706 | -156.27561 | 21101 ft | 391 kts | 257° |
| 2026-05-05 18:14 | 21.86092 | -156.30415 | 21103 ft | 392 kts | 257° |
| 2026-05-05 18:14 | 21.85484 | -156.33241 | 21100 ft | 392 kts | 257° |
| 2026-05-05 18:15 | 21.84870 | -156.36099 | 21098 ft | 392 kts | 257° |
| 2026-05-05 18:15 | 21.84255 | -156.38951 | 21095 ft | 389 kts | 257° |
| 2026-05-05 18:15 | 21.83641 | -156.41793 | 20979 ft | 386 kts | 257° |
| 2026-05-05 18:15 | 21.83032 | -156.44617 | 20109 ft | 389 kts | 257° |
| 2026-05-05 18:16 | 21.82423 | -156.47439 | 19523 ft | 384 kts | 257° |
| 2026-05-05 18:16 | 21.81820 | -156.50224 | 18890 ft | 381 kts | 257° |
| 2026-05-05 18:16 | 21.81221 | -156.52994 | 18267 ft | 379 kts | 257° |
| 2026-05-05 18:16 | 21.80626 | -156.55742 | 17578 ft | 375 kts | 257° |
| 2026-05-05 18:17 | 21.80038 | -156.58454 | 16955 ft | 369 kts | 257° |
| 2026-05-05 18:17 | 21.79455 | -156.61142 | 16217 ft | 368 kts | 257° |
| 2026-05-05 18:17 | 21.78875 | -156.63813 | 15561 ft | 365 kts | 257° |
| 2026-05-05 18:17 | 21.78300 | -156.66458 | 14945 ft | 360 kts | 257° |
| 2026-05-05 18:18 | 21.77734 | -156.69062 | 14272 ft | 358 kts | 257° |
| 2026-05-05 18:18 | 21.77168 | -156.71671 | 13453 ft | 360 kts | 257° |
| 2026-05-05 18:18 | 21.76599 | -156.74274 | 12986 ft | 352 kts | 257° |
| 2026-05-05 18:18 | 21.76048 | -156.76795 | 12989 ft | 345 kts | 257° |
| 2026-05-05 18:19 | 21.75493 | -156.79341 | 12991 ft | 352 kts | 257° |
| 2026-05-05 18:19 | 21.74931 | -156.81918 | 13000 ft | 356 kts | 257° |
| 2026-05-05 18:19 | 21.74368 | -156.84492 | 12994 ft | 353 kts | 257° |
| 2026-05-05 18:19 | 21.73808 | -156.87053 | 12995 ft | 353 kts | 257° |
| 2026-05-05 18:20 | 21.73243 | -156.89633 | 12996 ft | 356 kts | 257° |
| 2026-05-05 18:20 | 21.72676 | -156.92222 | 12990 ft | 355 kts | 257° |
| 2026-05-05 18:20 | 21.72111 | -156.94799 | 12992 ft | 353 kts | 257° |
| 2026-05-05 18:20 | 21.71554 | -156.97341 | 12993 ft | 355 kts | 257° |
| 2026-05-05 18:21 | 21.70985 | -156.99932 | 12991 ft | 358 kts | 257° |
| 2026-05-05 18:21 | 21.70414 | -157.02528 | 12987 ft | 355 kts | 257° |
| 2026-05-05 18:21 | 21.69849 | -157.05099 | 12988 ft | 352 kts | 257° |
| 2026-05-05 18:21 | 21.69282 | -157.07676 | 12987 ft | 355 kts | 257° |
| 2026-05-05 18:22 | 21.68709 | -157.10275 | 12997 ft | 357 kts | 257° |
| 2026-05-05 18:22 | 21.68141 | -157.12854 | 12995 ft | 353 kts | 257° |
| 2026-05-05 18:22 | 21.67576 | -157.15416 | 12987 ft | 355 kts | 257° |
| 2026-05-05 18:22 | 21.66846 | -157.17946 | 12988 ft | 356 kts | 244° |
| 2026-05-05 18:23 | 21.65441 | -157.20133 | 12991 ft | 357 kts | 227° |
| 2026-05-05 18:23 | 21.63655 | -157.21979 | 12989 ft | 354 kts | 225° |
| 2026-05-05 18:23 | 21.61885 | -157.23786 | 12201 ft | 354 kts | 224° |
| 2026-05-05 18:23 | 21.60096 | -157.25587 | 11629 ft | 348 kts | 224° |
| 2026-05-05 18:24 | 21.58378 | -157.27327 | 11081 ft | 340 kts | 224° |
| 2026-05-05 18:24 | 21.56697 | -157.29042 | 10750 ft | 326 kts | 224° |
| 2026-05-05 18:24 | 21.55141 | -157.30624 | 10227 ft | 295 kts | 224° |
| 2026-05-05 18:24 | 21.53709 | -157.32076 | 9572 ft | 273 kts | 224° |
| 2026-05-05 18:25 | 21.52359 | -157.33446 | 8983 ft | 260 kts | 224° |
| 2026-05-05 18:25 | 21.51934 | -157.33877 | 8963 ft | 258 kts | 224° |
| 2026-05-05 18:25 | 21.49646 | -157.36200 | 8965 ft | 271 kts | 224° |
| 2026-05-05 18:25 | 21.48282 | -157.37583 | 8969 ft | 271 kts | 224° |
| 2026-05-05 18:26 | 21.46903 | -157.38982 | 8962 ft | 274 kts | 224° |
| 2026-05-05 18:26 | 21.45517 | -157.40386 | 8962 ft | 273 kts | 224° |
| 2026-05-05 18:26 | 21.44143 | -157.41779 | 8959 ft | 272 kts | 224° |
| 2026-05-05 18:26 | 21.42722 | -157.43087 | 8964 ft | 273 kts | 219° |
| 2026-05-05 18:27 | 21.41302 | -157.44426 | 8930 ft | 267 kts | 223° |
| 2026-05-05 18:27 | 21.39920 | -157.45779 | 8379 ft | 269 kts | 222° |
| 2026-05-05 18:27 | 21.38514 | -157.47099 | 7907 ft | 267 kts | 221° |
| 2026-05-05 18:27 | 21.37127 | -157.48379 | 7694 ft | 260 kts | 221° |
| 2026-05-05 18:28 | 21.34395 | -157.50931 | 7609 ft | 269 kts | 221° |
| 2026-05-05 18:28 | 21.32988 | -157.52244 | 7619 ft | 266 kts | 221° |
| 2026-05-05 18:28 | 21.31596 | -157.53544 | 7624 ft | 264 kts | 221° |
| 2026-05-05 18:29 | 21.30206 | -157.54842 | 7616 ft | 266 kts | 221° |
| 2026-05-05 18:29 | 21.28789 | -157.56164 | 7205 ft | 270 kts | 221° |
| 2026-05-05 18:29 | 21.27379 | -157.57479 | 6786 ft | 266 kts | 221° |
| 2026-05-05 18:29 | 21.25993 | -157.58771 | 6357 ft | 262 kts | 221° |
| 2026-05-05 18:30 | 21.24637 | -157.60035 | 5939 ft | 248 kts | 221° |
| 2026-05-05 18:30 | 21.23811 | -157.60805 | 5931 ft | 229 kts | 221° |
| 2026-05-05 18:30 | 21.22563 | -157.61839 | 5958 ft | 230 kts | 217° |
| 2026-05-05 18:30 | 21.21324 | -157.62965 | 5961 ft | 230 kts | 221° |
| 2026-05-05 18:31 | 21.20122 | -157.64075 | 5954 ft | 224 kts | 219° |
| 2026-05-05 18:31 | 21.18961 | -157.65098 | 5949 ft | 211 kts | 219° |
| 2026-05-05 18:31 | 21.17822 | -157.66090 | 5963 ft | 211 kts | 219° |
| 2026-05-05 18:31 | 21.16694 | -157.67079 | 5961 ft | 208 kts | 219° |
| 2026-05-05 18:32 | 21.15576 | -157.68062 | 5973 ft | 209 kts | 219° |
| 2026-05-05 18:32 | 21.14447 | -157.69054 | 5974 ft | 209 kts | 219° |
| 2026-05-05 18:32 | 21.13445 | -157.70172 | 5855 ft | 216 kts | 242° |
| 2026-05-05 18:32 | 21.12918 | -157.71704 | 5590 ft | 215 kts | 251° |
| 2026-05-05 18:33 | 21.12506 | -157.73197 | 5712 ft | 208 kts | 253° |
| 2026-05-05 18:33 | 21.12112 | -157.74697 | 5878 ft | 210 kts | 253° |
| 2026-05-05 18:33 | 21.11753 | -157.76191 | 5733 ft | 207 kts | 257° |
| 2026-05-05 18:33 | 21.11498 | -157.77749 | 5260 ft | 215 kts | 259° |
| 2026-05-05 18:34 | 21.11248 | -157.79304 | 5072 ft | 208 kts | 259° |
| 2026-05-05 18:34 | 21.11000 | -157.80831 | 4755 ft | 209 kts | 259° |
| 2026-05-05 18:34 | 21.10748 | -157.82359 | 4444 ft | 208 kts | 259° |
| 2026-05-05 18:34 | 21.10495 | -157.83883 | 4140 ft | 207 kts | 259° |
| 2026-05-05 18:35 | 21.10245 | -157.85398 | 3837 ft | 207 kts | 259° |
| 2026-05-05 18:35 | 21.09995 | -157.86913 | 3550 ft | 206 kts | 259° |
| 2026-05-05 18:35 | 21.09746 | -157.88421 | 3328 ft | 205 kts | 259° |
| 2026-05-05 18:35 | 21.09497 | -157.89919 | 3131 ft | 205 kts | 259° |
| 2026-05-05 18:36 | 21.09250 | -157.91417 | 2839 ft | 204 kts | 259° |
| 2026-05-05 18:36 | 21.09004 | -157.92910 | 2539 ft | 203 kts | 259° |
| 2026-05-05 18:36 | 21.08762 | -157.94389 | 2338 ft | 200 kts | 259° |
| 2026-05-05 18:36 | 21.08523 | -157.95841 | 2268 ft | 201 kts | 259° |
| 2026-05-05 18:37 | 21.08278 | -157.97309 | 2367 ft | 200 kts | 259° |
| 2026-05-05 18:37 | 21.08028 | -157.98782 | 2515 ft | 203 kts | 258° |
| 2026-05-05 18:37 | 21.07656 | -158.00249 | 2504 ft | 203 kts | 252° |
| 2026-05-05 18:37 | 21.07238 | -158.01712 | 2489 ft | 203 kts | 251° |
| 2026-05-05 18:38 | 21.06662 | -158.03089 | 2509 ft | 202 kts | 244° |
| 2026-05-05 18:38 | 21.06064 | -158.04460 | 2489 ft | 203 kts | 244° |
| 2026-05-05 18:38 | 21.05612 | -158.05852 | 2523 ft | 198 kts | 257° |
| 2026-05-05 18:38 | 21.05351 | -158.07202 | 2578 ft | 177 kts | 257° |
| 2026-05-05 18:39 | 21.05097 | -158.08441 | 2463 ft | 164 kts | 257° |
| 2026-05-05 18:39 | 21.04858 | -158.09603 | 2469 ft | 153 kts | 257° |
| 2026-05-05 18:39 | 21.04625 | -158.10747 | 2490 ft | 164 kts | 257° |
| 2026-05-05 18:39 | 21.04378 | -158.11941 | 2466 ft | 159 kts | 257° |
| 2026-05-05 18:40 | 21.04136 | -158.13100 | 2470 ft | 165 kts | 257° |
| 2026-05-05 18:40 | 21.03937 | -158.14282 | 2489 ft | 158 kts | 266° |
| 2026-05-05 18:40 | 21.04086 | -158.15467 | 2485 ft | 164 kts | 280° |
| 2026-05-05 18:40 | 21.04288 | -158.16672 | 2482 ft | 164 kts | 279° |
| 2026-05-05 18:41 | 21.04487 | -158.17869 | 2455 ft | 166 kts | 279° |
| 2026-05-05 18:41 | 21.04687 | -158.19061 | 2478 ft | 156 kts | 279° |
| 2026-05-05 18:41 | 21.04910 | -158.20241 | 2467 ft | 169 kts | 284° |
| 2026-05-05 18:41 | 21.05564 | -158.21271 | 2309 ft | 172 kts | 314° |
| 2026-05-05 18:42 | 21.06534 | -158.22118 | 2528 ft | 186 kts | 324° |
| 2026-05-05 18:42 | 21.07617 | -158.22924 | 2950 ft | 194 kts | 324° |
| 2026-05-05 18:42 | 21.08807 | -158.23659 | 3194 ft | 199 kts | 344° |
| 2026-05-05 18:42 | 21.10159 | -158.23717 | 2896 ft | 196 kts | 5° |
| 2026-05-05 18:43 | 21.11392 | -158.23145 | 2475 ft | 198 kts | 46° |
| 2026-05-05 18:43 | 21.12220 | -158.22026 | 2503 ft | 192 kts | 54° |
| 2026-05-05 18:43 | 21.13002 | -158.20846 | 2515 ft | 194 kts | 56° |
| 2026-05-05 18:43 | 21.13769 | -158.19653 | 2500 ft | 196 kts | 56° |
| 2026-05-05 18:44 | 21.14519 | -158.18441 | 2487 ft | 194 kts | 63° |
| 2026-05-05 18:44 | 21.14864 | -158.17056 | 2499 ft | 193 kts | 77° |
| 2026-05-05 18:44 | 21.15332 | -158.15693 | 2498 ft | 195 kts | 65° |
| 2026-05-05 18:44 | 21.16088 | -158.14484 | 2493 ft | 195 kts | 54° |
| 2026-05-05 18:45 | 21.16893 | -158.13317 | 2505 ft | 195 kts | 53° |
| 2026-05-05 18:45 | 21.17711 | -158.12153 | 2508 ft | 196 kts | 53° |
| 2026-05-05 18:45 | 21.18530 | -158.10989 | 2500 ft | 195 kts | 53° |
| 2026-05-05 18:45 | 21.19344 | -158.09832 | 2507 ft | 195 kts | 53° |
| 2026-05-05 18:46 | 21.20126 | -158.08721 | 2505 ft | 196 kts | 53° |
| 2026-05-05 18:46 | 21.20960 | -158.07535 | 2503 ft | 192 kts | 53° |
| 2026-05-05 18:46 | 21.21766 | -158.06390 | 2502 ft | 193 kts | 53° |
| 2026-05-05 18:46 | 21.22574 | -158.05241 | 2502 ft | 194 kts | 53° |
| 2026-05-05 18:47 | 21.23367 | -158.04113 | 2498 ft | 192 kts | 53° |
| 2026-05-05 18:47 | 21.24194 | -158.02937 | 2316 ft | 194 kts | 53° |
| 2026-05-05 18:47 | 21.24999 | -158.01791 | 2066 ft | 190 kts | 53° |
| 2026-05-05 18:47 | 21.25788 | -158.00669 | 1822 ft | 187 kts | 53° |
| 2026-05-05 18:48 | 21.26564 | -157.99566 | 1578 ft | 182 kts | 53° |
| 2026-05-05 18:48 | 21.27307 | -157.98509 | 1341 ft | 173 kts | 53° |
| 2026-05-05 18:48 | 21.28008 | -157.97513 | 1103 ft | 160 kts | 53° |
| 2026-05-05 18:48 | 21.28658 | -157.96588 | 902 ft | 153 kts | 53° |
| 2026-05-05 18:49 | 21.29293 | -157.95693 | 727 ft | 150 kts | 52° |
| 2026-05-05 18:49 | 21.29926 | -157.94796 | 526 ft | 152 kts | 53° |
| 2026-05-05 18:49 | 21.30568 | -157.93892 | 308 ft | 153 kts | 51° |
| 2026-05-05 18:49 | 21.31200 | -157.92990 | 105 ft | 151 kts | 53° |
| 2026-05-05 18:50 | 21.31788 | -157.92159 | 30 ft | 124 kts | 52° |
| 2026-05-05 18:50 | 21.32226 | -157.91532 | 29 ft | 88 kts | 53° |
| 2026-05-05 18:50 | 21.32539 | -157.91089 | 29 ft | 62 kts | 51° |
| 2026-05-05 18:50 | 21.32762 | -157.90775 | 29 ft | 45 kts | 53° |
| 2026-05-05 18:51 | 21.32955 | -157.90648 | 29 ft | 26 kts | 339° |
| 2026-05-05 18:51 | 21.33017 | -157.90736 | 29 ft | 8 kts | 303° |
| 2026-05-05 18:51 | 21.33030 | -157.90756 | 29 ft | 3 kts | 303° |
| 2026-05-05 18:51 | 21.33042 | -157.90796 | 29 ft | 9 kts | 278° |
| 2026-05-05 18:52 | 21.33031 | -157.90874 | 29 ft | 13 kts | 247° |
| 2026-05-05 18:52 | 21.32981 | -157.90982 | 29 ft | 17 kts | 233° |
| 2026-05-05 18:52 | 21.32888 | -157.91089 | 29 ft | 22 kts | 230° |
| 2026-05-05 18:52 | 21.32783 | -157.91237 | 29 ft | 27 kts | 239° |
| 2026-05-05 18:53 | 21.32773 | -157.91443 | 29 ft | 29 kts | 269° |
| 2026-05-05 18:53 | 21.32776 | -157.91667 | 30 ft | 31 kts | 271° |
| 2026-05-05 18:53 | 21.32775 | -157.91901 | 29 ft | 31 kts | 269° |
| 2026-05-05 18:53 | 21.32779 | -157.92131 | 30 ft | 30 kts | 282° |
| 2026-05-05 18:54 | 21.32922 | -157.92214 | 30 ft | 24 kts | 28° |
| 2026-05-05 18:54 | 21.32961 | -157.92089 | 30 ft | 8 kts | 98° |
| 2026-05-05 18:54 | 21.32960 | -157.92085 | 29 ft | 0 kts | 98° |